KRIC/RIC METAR and TAF weather

Enter ICAO airport designator
Station Type Date Time Source
KRIC METAR 2020/01/26 18:54 UTC NOAA

KRIC 261854Z 31010KT 270V340 10SM BKN050 11/M02 A2988 RMK AO2 SLP123 T01111017 $


Station Type Date Time Source
KRIC Decoded METAR 2020/01/26 18:54 UTC NOAA

RICHMOND INTERNATIONAL AIRPORT, VA, United States (KRIC) 37-31N 077-19W 50M
Jan 26, 2020 - 01:54 PM EST / 2020.01.26 1854 UTC
Wind: from the NW (310 degrees) at 12 MPH (10 KT) (direction variable):0
Visibility: 10 mile(s):0
Sky conditions: mostly cloudy
Temperature: 52.0 F (11.1 C)
Dew Point: 28.9 F (-1.7 C)
Relative Humidity: 40%
Pressure (altimeter): 29.88 in. Hg (1011 hPa)
ob: KRIC 261854Z 31010KT 270V340 10SM BKN050 11/M02 A2988 RMK AO2 SLP123 T01111017
cycle: 19

Station Type Date Time Source
KRIC TAF 2020/01/26 18:24 UTC NOAA

TAF KRIC 261720Z 2618/2718 29009KT P6SM FEW250
FM262300 27005KT P6SM SCT120
FM270100 24005KT P6SM SCT150

Example: see airport list